Řízení letového provozu České republiky
Letiste: LKPR Aktualizace: 28.06.2017 05:06:13  UTC
 METAR LKPR 28.06. 05:00 ...
METAR LKPR 280500Z 01003KT 320V060 0300 R24/0450D R30/0350N FG VV001 16/15 Q1004 BECMG 0700 FG VV002 RMK REG QNH 1002=
 TAF LKPR 27.06. 23:00 AAB
TAF AMD LKPR 280330Z 2804/2906 VRB02KT CAVOK      TEMPO 2804/2806 1200 MIFG BKN003      PROB30 TEMPO 2804/2805 0300 FG BKN001      PROB40 TEMPO 2814/2820 27020G38KT 2000 TSRA BKN015CB      TEMPO 2820/2906 20010KT 7000 SHRA SCT035TCU      PROB30 TEMPO 2820/2906 20022G36KT 3000 TSRA BKN030CB=